sensor_id;sensor_type;location;lat;lon;timestamp;pressure;altitude;pressure_sealevel;temperature
41654;BMP280;68687;52.030;7.110;2023-03-20T00:01:14;101136.13;;;8.36
41654;BMP280;68687;52.030;7.110;2023-03-20T00:03:40;101130.13;;;8.43
41654;BMP280;68687;52.030;7.110;2023-03-20T00:06:13;101131.97;;;8.42
41654;BMP280;68687;52.030;7.110;2023-03-20T00:08:39;101123.91;;;8.34
41654;BMP280;68687;52.030;7.110;2023-03-20T00:11:05;101148.84;;;8.43
41654;BMP280;68687;52.030;7.110;2023-03-20T00:13:30;101147.84;;;8.44
41654;BMP280;68687;52.030;7.110;2023-03-20T00:15:55;101144.81;;;8.39
41654;BMP280;68687;52.030;7.110;2023-03-20T00:18:22;101146.25;;;8.51
41654;BMP280;68687;52.030;7.110;2023-03-20T00:20:49;101145.81;;;8.38
41654;BMP280;68687;52.030;7.110;2023-03-20T00:23:15;101129.28;;;8.42
41654;BMP280;68687;52.030;7.110;2023-03-20T00:25:43;101149.22;;;8.48
41654;BMP280;68687;52.030;7.110;2023-03-20T00:28:38;101150.84;;;8.41
41654;BMP280;68687;52.030;7.110;2023-03-20T00:31:10;101142.63;;;8.34
41654;BMP280;68687;52.030;7.110;2023-03-20T00:33:38;101134.66;;;8.24
41654;BMP280;68687;52.030;7.110;2023-03-20T00:36:03;101140.47;;;8.38
41654;BMP280;68687;52.030;7.110;2023-03-20T00:38:30;101123.72;;;8.35
41654;BMP280;68687;52.030;7.110;2023-03-20T00:40:55;101129.84;;;8.28
41654;BMP280;68687;52.030;7.110;2023-03-20T00:43:21;101118.91;;;8.21
41654;BMP280;68687;52.030;7.110;2023-03-20T00:45:46;101127.94;;;8.20
41654;BMP280;68687;52.030;7.110;2023-03-20T00:48:14;101129.06;;;8.18
41654;BMP280;68687;52.030;7.110;2023-03-20T00:50:40;101120.91;;;8.19
41654;BMP280;68687;52.030;7.110;2023-03-20T00:53:09;101127.72;;;8.14
41654;BMP280;68687;52.030;7.110;2023-03-20T00:55:34;101117.38;;;8.19
41654;BMP280;68687;52.030;7.110;2023-03-20T00:58:01;101122.56;;;8.20
41654;BMP280;68687;52.030;7.110;2023-03-20T01:00:38;101119.84;;;8.12
41654;BMP280;68687;52.030;7.110;2023-03-20T01:03:25;101122.91;;;8.17
41654;BMP280;68687;52.030;7.110;2023-03-20T01:05:51;101126.50;;;8.08
41654;BMP280;68687;52.030;7.110;2023-03-20T01:08:22;101126.03;;;8.13
41654;BMP280;68687;52.030;7.110;2023-03-20T01:10:50;101134.22;;;8.11
41654;BMP280;68687;52.030;7.110;2023-03-20T01:13:24;101138.72;;;8.11
41654;BMP280;68687;52.030;7.110;2023-03-20T01:15:50;101143.25;;;8.10
41654;BMP280;68687;52.030;7.110;2023-03-20T01:18:18;101140.19;;;8.05
41654;BMP280;68687;52.030;7.110;2023-03-20T01:20:44;101151.09;;;8.12
41654;BMP280;68687;52.030;7.110;2023-03-20T01:23:10;101146.91;;;8.09
41654;BMP280;68687;52.030;7.110;2023-03-20T01:25:36;101151.47;;;8.17
41654;BMP280;68687;52.030;7.110;2023-03-20T01:28:03;101151.63;;;8.15
41654;BMP280;68687;52.030;7.110;2023-03-20T01:30:36;101162.31;;;8.15
41654;BMP280;68687;52.030;7.110;2023-03-20T01:33:08;101157.28;;;8.12
41654;BMP280;68687;52.030;7.110;2023-03-20T01:35:36;101159.66;;;8.15
41654;BMP280;68687;52.030;7.110;2023-03-20T01:38:01;101157.66;;;8.17
41654;BMP280;68687;52.030;7.110;2023-03-20T01:40:55;101147.66;;;8.19
41654;BMP280;68687;52.030;7.110;2023-03-20T01:43:23;101159.19;;;8.20
41654;BMP280;68687;52.030;7.110;2023-03-20T01:48:56;101148.28;;;8.13
41654;BMP280;68687;52.030;7.110;2023-03-20T01:51:27;101146.38;;;8.05
41654;BMP280;68687;52.030;7.110;2023-03-20T01:54:03;101154.63;;;8.12
41654;BMP280;68687;52.030;7.110;2023-03-20T01:56:32;101153.47;;;8.15
41654;BMP280;68687;52.030;7.110;2023-03-20T01:59:09;101156.22;;;8.05
41654;BMP280;68687;52.030;7.110;2023-03-20T02:01:38;101156.75;;;8.09
41654;BMP280;68687;52.030;7.110;2023-03-20T02:04:04;101171.13;;;8.07
41654;BMP280;68687;52.030;7.110;2023-03-20T02:06:31;101188.41;;;7.95
41654;BMP280;68687;52.030;7.110;2023-03-20T02:08:56;101192.81;;;8.04
41654;BMP280;68687;52.030;7.110;2023-03-20T02:11:23;101188.78;;;8.00
41654;BMP280;68687;52.030;7.110;2023-03-20T02:13:52;101194.44;;;7.97
41654;BMP280;68687;52.030;7.110;2023-03-20T02:16:18;101188.25;;;7.97
41654;BMP280;68687;52.030;7.110;2023-03-20T02:18:46;101192.16;;;8.02
41654;BMP280;68687;52.030;7.110;2023-03-20T02:30:11;101174.63;;;8.08
41654;BMP280;68687;52.030;7.110;2023-03-20T02:40:57;101177.63;;;8.05
41654;BMP280;68687;52.030;7.110;2023-03-20T02:46:25;101169.53;;;7.97
41654;BMP280;68687;52.030;7.110;2023-03-20T02:49:00;101179.63;;;8.03
41654;BMP280;68687;52.030;7.110;2023-03-20T02:51:38;101179.31;;;8.06
41654;BMP280;68687;52.030;7.110;2023-03-20T02:56:51;101161.91;;;8.02
41654;BMP280;68687;52.030;7.110;2023-03-20T02:59:32;101162.34;;;7.97
41654;BMP280;68687;52.030;7.110;2023-03-20T03:02:06;101150.41;;;7.92
41654;BMP280;68687;52.030;7.110;2023-03-20T03:04:38;101146.47;;;7.96
41654;BMP280;68687;52.030;7.110;2023-03-20T03:07:07;101156.22;;;8.05
41654;BMP280;68687;52.030;7.110;2023-03-20T03:09:38;101150.19;;;8.03
41654;BMP280;68687;52.030;7.110;2023-03-20T03:12:14;101141.03;;;8.05
41654;BMP280;68687;52.030;7.110;2023-03-20T03:17:17;101129.19;;;8.08
41654;BMP280;68687;52.030;7.110;2023-03-20T03:19:47;101122.56;;;7.94
41654;BMP280;68687;52.030;7.110;2023-03-20T03:22:14;101104.28;;;7.90
41654;BMP280;68687;52.030;7.110;2023-03-20T03:24:45;101111.00;;;7.94
41654;BMP280;68687;52.030;7.110;2023-03-20T03:27:17;101118.66;;;7.89
41654;BMP280;68687;52.030;7.110;2023-03-20T03:29:47;101113.63;;;7.86
41654;BMP280;68687;52.030;7.110;2023-03-20T03:32:22;101113.78;;;7.84
41654;BMP280;68687;52.030;7.110;2023-03-20T03:34:49;101126.81;;;7.87
41654;BMP280;68687;52.030;7.110;2023-03-20T03:40:15;101130.28;;;7.80
41654;BMP280;68687;52.030;7.110;2023-03-20T03:43:00;101138.81;;;7.83
41654;BMP280;68687;52.030;7.110;2023-03-20T03:45:37;101133.63;;;7.82
41654;BMP280;68687;52.030;7.110;2023-03-20T03:48:14;101139.66;;;7.84
41654;BMP280;68687;52.030;7.110;2023-03-20T03:51:04;101138.72;;;7.93
41654;BMP280;68687;52.030;7.110;2023-03-20T03:53:34;101137.16;;;7.82
41654;BMP280;68687;52.030;7.110;2023-03-20T03:56:03;101135.84;;;7.86
41654;BMP280;68687;52.030;7.110;2023-03-20T03:58:36;101134.47;;;7.82
41654;BMP280;68687;52.030;7.110;2023-03-20T04:01:05;101125.56;;;7.73
41654;BMP280;68687;52.030;7.110;2023-03-20T04:03:37;101126.53;;;7.72
41654;BMP280;68687;52.030;7.110;2023-03-20T04:06:04;101128.91;;;7.75
41654;BMP280;68687;52.030;7.110;2023-03-20T04:08:31;101137.31;;;7.81
41654;BMP280;68687;52.030;7.110;2023-03-20T04:10:57;101129.75;;;7.76
41654;BMP280;68687;52.030;7.110;2023-03-20T04:13:22;101119.59;;;7.80
41654;BMP280;68687;52.030;7.110;2023-03-20T04:15:48;101109.81;;;7.70
41654;BMP280;68687;52.030;7.110;2023-03-20T04:18:15;101106.75;;;7.65
41654;BMP280;68687;52.030;7.110;2023-03-20T04:20:42;101108.19;;;7.60
41654;BMP280;68687;52.030;7.110;2023-03-20T04:23:07;101100.97;;;7.52
41654;BMP280;68687;52.030;7.110;2023-03-20T04:25:33;101100.72;;;7.63
41654;BMP280;68687;52.030;7.110;2023-03-20T04:27:58;101096.16;;;7.56
41654;BMP280;68687;52.030;7.110;2023-03-20T04:30:23;101083.69;;;7.64
41654;BMP280;68687;52.030;7.110;2023-03-20T04:32:48;101086.00;;;7.59
41654;BMP280;68687;52.030;7.110;2023-03-20T04:35:14;101087.78;;;7.68
41654;BMP280;68687;52.030;7.110;2023-03-20T04:37:39;101088.59;;;7.51
41654;BMP280;68687;52.030;7.110;2023-03-20T04:40:05;101091.03;;;7.62
41654;BMP280;68687;52.030;7.110;2023-03-20T04:42:30;101098.19;;;7.62
41654;BMP280;68687;52.030;7.110;2023-03-20T04:44:55;101097.91;;;7.47
41654;BMP280;68687;52.030;7.110;2023-03-20T04:47:21;101100.34;;;7.58
41654;BMP280;68687;52.030;7.110;2023-03-20T04:49:46;101099.59;;;7.48
41654;BMP280;68687;52.030;7.110;2023-03-20T04:52:11;101112.72;;;7.59
41654;BMP280;68687;52.030;7.110;2023-03-20T04:54:37;101110.81;;;7.52
41654;BMP280;68687;52.030;7.110;2023-03-20T04:57:02;101106.00;;;7.55
41654;BMP280;68687;52.030;7.110;2023-03-20T04:59:28;101104.38;;;7.62
41654;BMP280;68687;52.030;7.110;2023-03-20T05:01:53;101097.00;;;7.56
41654;BMP280;68687;52.030;7.110;2023-03-20T05:04:18;101099.91;;;7.45
41654;BMP280;68687;52.030;7.110;2023-03-20T05:06:44;101083.38;;;7.32
41654;BMP280;68687;52.030;7.110;2023-03-20T05:09:13;101083.50;;;7.40
41654;BMP280;68687;52.030;7.110;2023-03-20T05:11:38;101086.00;;;7.41
41654;BMP280;68687;52.030;7.110;2023-03-20T05:14:03;101088.13;;;7.38
41654;BMP280;68687;52.030;7.110;2023-03-20T05:16:29;101106.13;;;7.36
41654;BMP280;68687;52.030;7.110;2023-03-20T05:18:54;101107.28;;;7.33
41654;BMP280;68687;52.030;7.110;2023-03-20T05:21:20;101105.94;;;7.47
41654;BMP280;68687;52.030;7.110;2023-03-20T05:23:45;101106.13;;;7.36
41654;BMP280;68687;52.030;7.110;2023-03-20T05:26:10;101106.44;;;7.33
41654;BMP280;68687;52.030;7.110;2023-03-20T05:28:36;101100.19;;;7.42
41654;BMP280;68687;52.030;7.110;2023-03-20T05:31:01;101102.53;;;7.27
41654;BMP280;68687;52.030;7.110;2023-03-20T05:33:26;101111.78;;;7.33
41654;BMP280;68687;52.030;7.110;2023-03-20T05:35:52;101106.56;;;7.13
41654;BMP280;68687;52.030;7.110;2023-03-20T05:38:17;101108.41;;;7.13
41654;BMP280;68687;52.030;7.110;2023-03-20T05:40:46;101114.22;;;6.99
41654;BMP280;68687;52.030;7.110;2023-03-20T05:43:12;101104.69;;;6.96
41654;BMP280;68687;52.030;7.110;2023-03-20T05:45:37;101114.84;;;7.10
41654;BMP280;68687;52.030;7.110;2023-03-20T05:48:02;101112.19;;;7.10
41654;BMP280;68687;52.030;7.110;2023-03-20T05:50:28;101109.03;;;6.97
41654;BMP280;68687;52.030;7.110;2023-03-20T05:52:53;101107.66;;;6.93
41654;BMP280;68687;52.030;7.110;2023-03-20T05:55:18;101112.31;;;6.91
41654;BMP280;68687;52.030;7.110;2023-03-20T05:57:44;101113.16;;;6.92
41654;BMP280;68687;52.030;7.110;2023-03-20T06:00:10;101121.88;;;6.84
41654;BMP280;68687;52.030;7.110;2023-03-20T06:02:36;101124.22;;;6.97
41654;BMP280;68687;52.030;7.110;2023-03-20T06:05:02;101120.31;;;6.91
41654;BMP280;68687;52.030;7.110;2023-03-20T06:07:28;101116.25;;;6.87
41654;BMP280;68687;52.030;7.110;2023-03-20T06:09:53;101123.28;;;6.88
41654;BMP280;68687;52.030;7.110;2023-03-20T06:12:19;101124.97;;;6.89
41654;BMP280;68687;52.030;7.110;2023-03-20T06:14:44;101124.13;;;6.89
41654;BMP280;68687;52.030;7.110;2023-03-20T06:17:09;101127.78;;;6.78
41654;BMP280;68687;52.030;7.110;2023-03-20T06:19:35;101132.53;;;6.84
41654;BMP280;68687;52.030;7.110;2023-03-20T06:22:01;101125.66;;;6.91
41654;BMP280;68687;52.030;7.110;2023-03-20T06:24:26;101128.94;;;6.75
41654;BMP280;68687;52.030;7.110;2023-03-20T06:26:51;101132.88;;;6.71
41654;BMP280;68687;52.030;7.110;2023-03-20T06:29:17;101134.28;;;6.75
41654;BMP280;68687;52.030;7.110;2023-03-20T06:31:42;101138.38;;;6.70
41654;BMP280;68687;52.030;7.110;2023-03-20T06:34:07;101136.19;;;6.83
41654;BMP280;68687;52.030;7.110;2023-03-20T06:36:33;101132.53;;;6.84
41654;BMP280;68687;52.030;7.110;2023-03-20T06:38:58;101134.25;;;6.85
41654;BMP280;68687;52.030;7.110;2023-03-20T06:41:23;101141.97;;;6.88
41654;BMP280;68687;52.030;7.110;2023-03-20T06:43:48;101145.41;;;6.98
41654;BMP280;68687;52.030;7.110;2023-03-20T06:46:14;101155.03;;;6.81
41654;BMP280;68687;52.030;7.110;2023-03-20T06:48:39;101155.19;;;6.80
41654;BMP280;68687;52.030;7.110;2023-03-20T06:51:05;101153.88;;;6.94
41654;BMP280;68687;52.030;7.110;2023-03-20T06:53:31;101156.09;;;6.98
41654;BMP280;68687;52.030;7.110;2023-03-20T06:55:57;101166.63;;;7.00
41654;BMP280;68687;52.030;7.110;2023-03-20T06:58:22;101174.47;;;7.01
41654;BMP280;68687;52.030;7.110;2023-03-20T07:00:47;101170.66;;;7.04
41654;BMP280;68687;52.030;7.110;2023-03-20T07:03:13;101167.75;;;6.97
41654;BMP280;68687;52.030;7.110;2023-03-20T07:05:38;101171.81;;;7.01
41654;BMP280;68687;52.030;7.110;2023-03-20T07:08:04;101164.53;;;6.94
41654;BMP280;68687;52.030;7.110;2023-03-20T07:10:31;101171.19;;;6.80
41654;BMP280;68687;52.030;7.110;2023-03-20T07:12:56;101157.88;;;6.70
41654;BMP280;68687;52.030;7.110;2023-03-20T07:15:22;101173.00;;;6.89
41654;BMP280;68687;52.030;7.110;2023-03-20T07:17:47;101158.63;;;7.00
41654;BMP280;68687;52.030;7.110;2023-03-20T07:20:12;101161.91;;;7.11
41654;BMP280;68687;52.030;7.110;2023-03-20T07:22:38;101169.25;;;7.09
41654;BMP280;68687;52.030;7.110;2023-03-20T07:25:06;101174.69;;;7.18
41654;BMP280;68687;52.030;7.110;2023-03-20T07:27:32;101167.84;;;7.05
41654;BMP280;68687;52.030;7.110;2023-03-20T07:29:57;101165.56;;;7.10
41654;BMP280;68687;52.030;7.110;2023-03-20T07:32:22;101173.50;;;7.02
41654;BMP280;68687;52.030;7.110;2023-03-20T07:34:48;101166.84;;;7.16
41654;BMP280;68687;52.030;7.110;2023-03-20T07:37:14;101183.78;;;7.25
41654;BMP280;68687;52.030;7.110;2023-03-20T07:39:40;101170.06;;;7.10
41654;BMP280;68687;52.030;7.110;2023-03-20T07:42:05;101170.66;;;7.13
41654;BMP280;68687;52.030;7.110;2023-03-20T07:44:31;101175.69;;;7.17
41654;BMP280;68687;52.030;7.110;2023-03-20T07:46:56;101175.88;;;7.33
41654;BMP280;68687;52.030;7.110;2023-03-20T07:49:22;101185.38;;;7.45
41654;BMP280;68687;52.030;7.110;2023-03-20T07:51:48;101181.59;;;7.38
41654;BMP280;68687;52.030;7.110;2023-03-20T07:54:14;101172.78;;;7.55
41654;BMP280;68687;52.030;7.110;2023-03-20T07:56:39;101169.63;;;7.69
41654;BMP280;68687;52.030;7.110;2023-03-20T07:59:05;101171.97;;;7.72
41654;BMP280;68687;52.030;7.110;2023-03-20T08:01:30;101175.03;;;7.78
41654;BMP280;68687;52.030;7.110;2023-03-20T08:03:56;101166.25;;;7.85
41654;BMP280;68687;52.030;7.110;2023-03-20T08:06:21;101176.56;;;7.80
41654;BMP280;68687;52.030;7.110;2023-03-20T08:08:46;101170.91;;;8.01
41654;BMP280;68687;52.030;7.110;2023-03-20T08:11:13;101164.25;;;7.87
41654;BMP280;68687;52.030;7.110;2023-03-20T08:13:39;101165.88;;;7.98
41654;BMP280;68687;52.030;7.110;2023-03-20T08:16:05;101166.09;;;8.04
41654;BMP280;68687;52.030;7.110;2023-03-20T08:18:30;101167.03;;;7.95
41654;BMP280;68687;52.030;7.110;2023-03-20T08:20:56;101172.03;;;8.16
41654;BMP280;68687;52.030;7.110;2023-03-20T08:23:21;101168.13;;;8.28
41654;BMP280;68687;52.030;7.110;2023-03-20T08:25:50;101171.03;;;8.17
41654;BMP280;68687;52.030;7.110;2023-03-20T08:28:17;101168.50;;;8.16
41654;BMP280;68687;52.030;7.110;2023-03-20T08:30:42;101169.44;;;8.24
41654;BMP280;68687;52.030;7.110;2023-03-20T08:33:07;101160.19;;;8.19
41654;BMP280;68687;52.030;7.110;2023-03-20T08:35:33;101168.25;;;8.45
41654;BMP280;68687;52.030;7.110;2023-03-20T08:37:58;101165.22;;;8.40
41654;BMP280;68687;52.030;7.110;2023-03-20T08:40:24;101169.59;;;8.23
41654;BMP280;68687;52.030;7.110;2023-03-20T08:42:49;101174.38;;;8.19
41654;BMP280;68687;52.030;7.110;2023-03-20T08:45:14;101171.88;;;8.18
41654;BMP280;68687;52.030;7.110;2023-03-20T08:47:41;101166.69;;;8.34
41654;BMP280;68687;52.030;7.110;2023-03-20T08:50:06;101166.69;;;8.34
41654;BMP280;68687;52.030;7.110;2023-03-20T08:52:32;101166.25;;;8.03
41654;BMP280;68687;52.030;7.110;2023-03-20T08:54:57;101169.50;;;8.32
41654;BMP280;68687;52.030;7.110;2023-03-20T08:57:23;101163.38;;;8.40
41654;BMP280;68687;52.030;7.110;2023-03-20T08:59:48;101164.81;;;8.52
41654;BMP280;68687;52.030;7.110;2023-03-20T09:02:13;101171.59;;;8.64
41654;BMP280;68687;52.030;7.110;2023-03-20T09:04:39;101171.03;;;8.53
41654;BMP280;68687;52.030;7.110;2023-03-20T09:07:05;101171.75;;;8.63
41654;BMP280;68687;52.030;7.110;2023-03-20T09:09:30;101170.44;;;8.67
41654;BMP280;68687;52.030;7.110;2023-03-20T09:11:57;101176.72;;;8.84
41654;BMP280;68687;52.030;7.110;2023-03-20T09:14:23;101178.31;;;9.03
41654;BMP280;68687;52.030;7.110;2023-03-20T09:16:49;101179.44;;;8.66
41654;BMP280;68687;52.030;7.110;2023-03-20T09:19:15;101176.81;;;8.48
41654;BMP280;68687;52.030;7.110;2023-03-20T09:21:41;101179.88;;;8.53
41654;BMP280;68687;52.030;7.110;2023-03-20T09:24:06;101173.84;;;8.51
41654;BMP280;68687;52.030;7.110;2023-03-20T09:26:31;101174.88;;;8.84
41654;BMP280;68687;52.030;7.110;2023-03-20T09:28:57;101175.22;;;8.55
41654;BMP280;68687;52.030;7.110;2023-03-20T09:31:22;101178.78;;;8.64
41654;BMP280;68687;52.030;7.110;2023-03-20T09:33:48;101177.50;;;8.76
41654;BMP280;68687;52.030;7.110;2023-03-20T09:36:13;101177.81;;;8.47
41654;BMP280;68687;52.030;7.110;2023-03-20T09:38:40;101182.97;;;8.66
41654;BMP280;68687;52.030;7.110;2023-03-20T09:41:14;101191.16;;;8.91
41654;BMP280;68687;52.030;7.110;2023-03-20T09:46:57;101184.28;;;8.88
41654;BMP280;68687;52.030;7.110;2023-03-20T09:49:42;101185.97;;;8.89
41654;BMP280;68687;52.030;7.110;2023-03-20T09:52:20;101184.13;;;8.90
41654;BMP280;68687;52.030;7.110;2023-03-20T09:55:34;101185.59;;;8.84
41654;BMP280;68687;52.030;7.110;2023-03-20T09:57:38;101180.28;;;8.92
41654;BMP280;68687;52.030;7.110;2023-03-20T10:00:28;101184.09;;;9.16
41654;BMP280;68687;52.030;7.110;2023-03-20T10:02:57;101185.88;;;9.07
41654;BMP280;68687;52.030;7.110;2023-03-20T10:05:28;101180.97;;;8.94
41654;BMP280;68687;52.030;7.110;2023-03-20T10:07:56;101180.56;;;8.81
41654;BMP280;68687;52.030;7.110;2023-03-20T10:10:41;101177.84;;;9.07
41654;BMP280;68687;52.030;7.110;2023-03-20T10:13:38;101172.03;;;9.20
41654;BMP280;68687;52.030;7.110;2023-03-20T10:24:05;101166.50;;;9.72
41654;BMP280;68687;52.030;7.110;2023-03-20T10:26:33;101170.78;;;9.48
41654;BMP280;68687;52.030;7.110;2023-03-20T10:29:02;101161.19;;;9.88
41654;BMP280;68687;52.030;7.110;2023-03-20T10:31:51;101168.88;;;9.91
41654;BMP280;68687;52.030;7.110;2023-03-20T10:34:38;101161.38;;;10.27
41654;BMP280;68687;52.030;7.110;2023-03-20T10:39:53;101149.41;;;10.62
41654;BMP280;68687;52.030;7.110;2023-03-20T10:42:29;101150.06;;;10.80
41654;BMP280;68687;52.030;7.110;2023-03-20T10:45:05;101144.75;;;10.48
41654;BMP280;68687;52.030;7.110;2023-03-20T10:47:35;101148.63;;;10.37
41654;BMP280;68687;52.030;7.110;2023-03-20T10:50:27;101144.41;;;10.18
41654;BMP280;68687;52.030;7.110;2023-03-20T10:52:54;101139.56;;;10.30
41654;BMP280;68687;52.030;7.110;2023-03-20T10:55:41;101132.84;;;10.02
41654;BMP280;68687;52.030;7.110;2023-03-20T11:00:45;101147.09;;;10.18
41654;BMP280;68687;52.030;7.110;2023-03-20T11:03:21;101141.03;;;9.76
41654;BMP280;68687;52.030;7.110;2023-03-20T11:05:51;101141.06;;;10.00
41654;BMP280;68687;52.030;7.110;2023-03-20T11:08:22;101136.38;;;10.27
41654;BMP280;68687;52.030;7.110;2023-03-20T11:10:57;101138.41;;;10.25
41654;BMP280;68687;52.030;7.110;2023-03-20T11:15:55;101132.31;;;9.82
41654;BMP280;68687;52.030;7.110;2023-03-20T11:18:24;101131.50;;;9.89
41654;BMP280;68687;52.030;7.110;2023-03-20T11:20:55;101126.66;;;10.26
41654;BMP280;68687;52.030;7.110;2023-03-20T11:23:27;101130.00;;;10.19
41654;BMP280;68687;52.030;7.110;2023-03-20T11:26:00;101124.97;;;10.33
41654;BMP280;68687;52.030;7.110;2023-03-20T11:28:36;101128.31;;;10.51
41654;BMP280;68687;52.030;7.110;2023-03-20T11:31:06;101134.03;;;10.48
41654;BMP280;68687;52.030;7.110;2023-03-20T11:33:43;101135.84;;;10.39
41654;BMP280;68687;52.030;7.110;2023-03-20T11:36:12;101121.63;;;10.31
41654;BMP280;68687;52.030;7.110;2023-03-20T11:38:44;101138.22;;;10.18
41654;BMP280;68687;52.030;7.110;2023-03-20T11:41:17;101129.84;;;9.97
41654;BMP280;68687;52.030;7.110;2023-03-20T11:43:43;101139.34;;;9.67
41654;BMP280;68687;52.030;7.110;2023-03-20T11:46:09;101133.44;;;9.47
41654;BMP280;68687;52.030;7.110;2023-03-20T11:48:39;101144.81;;;9.41
41654;BMP280;68687;52.030;7.110;2023-03-20T11:51:09;101137.13;;;9.38
41654;BMP280;68687;52.030;7.110;2023-03-20T11:53:39;101136.31;;;9.03
41654;BMP280;68687;52.030;7.110;2023-03-20T11:56:09;101149.34;;;9.40
41654;BMP280;68687;52.030;7.110;2023-03-20T12:01:12;101161.06;;;9.39
41654;BMP280;68687;52.030;7.110;2023-03-20T12:04:04;101168.81;;;9.58
41654;BMP280;68687;52.030;7.110;2023-03-20T12:06:46;101158.50;;;9.29
41654;BMP280;68687;52.030;7.110;2023-03-20T12:09:32;101161.09;;;9.47
41654;BMP280;68687;52.030;7.110;2023-03-20T12:17:31;101160.75;;;9.50
41654;BMP280;68687;52.030;7.110;2023-03-20T12:20:33;101165.53;;;9.30
41654;BMP280;68687;52.030;7.110;2023-03-20T12:25:51;101160.97;;;9.15
41654;BMP280;68687;52.030;7.110;2023-03-20T12:28:32;101168.84;;;8.82
41654;BMP280;68687;52.030;7.110;2023-03-20T12:33:53;101149.66;;;8.95
41654;BMP280;68687;52.030;7.110;2023-03-20T12:38:53;101149.38;;;8.72
41654;BMP280;68687;52.030;7.110;2023-03-20T12:41:25;101144.75;;;8.82
41654;BMP280;68687;52.030;7.110;2023-03-20T12:46:43;101142.28;;;8.89
41654;BMP280;68687;52.030;7.110;2023-03-20T12:54:36;101133.63;;;8.69
41654;BMP280;68687;52.030;7.110;2023-03-20T12:59:38;101137.44;;;8.92
41654;BMP280;68687;52.030;7.110;2023-03-20T13:04:52;101137.59;;;8.91
41654;BMP280;68687;52.030;7.110;2023-03-20T13:07:28;101130.44;;;8.99
41654;BMP280;68687;52.030;7.110;2023-03-20T13:10:21;101128.34;;;8.77
41654;BMP280;68687;52.030;7.110;2023-03-20T13:15:34;101116.63;;;8.78
41654;BMP280;68687;52.030;7.110;2023-03-20T13:18:17;101112.66;;;8.90
41654;BMP280;68687;52.030;7.110;2023-03-20T13:20:54;101118.25;;;8.71
41654;BMP280;68687;52.030;7.110;2023-03-20T13:24:02;101112.75;;;8.47
41654;BMP280;68687;52.030;7.110;2023-03-20T13:29:12;101101.41;;;8.79
41654;BMP280;68687;52.030;7.110;2023-03-20T13:34:50;101105.47;;;8.91
41654;BMP280;68687;52.030;7.110;2023-03-20T13:37:32;101093.06;;;8.82
41654;BMP280;68687;52.030;7.110;2023-03-20T13:40:13;101090.34;;;9.24
41654;BMP280;68687;52.030;7.110;2023-03-20T13:47:44;101085.91;;;8.90
41654;BMP280;68687;52.030;7.110;2023-03-20T13:55:59;101085.19;;;9.39
41654;BMP280;68687;52.030;7.110;2023-03-20T13:58:44;101081.34;;;9.41
41654;BMP280;68687;52.030;7.110;2023-03-20T14:03:43;101080.00;;;9.37
41654;BMP280;68687;52.030;7.110;2023-03-20T14:06:17;101076.34;;;9.54
41654;BMP280;68687;52.030;7.110;2023-03-20T14:08:53;101074.59;;;9.21
41654;BMP280;68687;52.030;7.110;2023-03-20T14:13:54;101075.66;;;8.86
41654;BMP280;68687;52.030;7.110;2023-03-20T14:16:20;101067.16;;;8.98
41654;BMP280;68687;52.030;7.110;2023-03-20T14:19:12;101069.28;;;8.79
41654;BMP280;68687;52.030;7.110;2023-03-20T14:21:44;101066.28;;;8.82
41654;BMP280;68687;52.030;7.110;2023-03-20T14:24:12;101064.41;;;8.40
41654;BMP280;68687;52.030;7.110;2023-03-20T14:26:40;101053.91;;;8.47
41654;BMP280;68687;52.030;7.110;2023-03-20T14:31:36;101042.16;;;8.40
41654;BMP280;68687;52.030;7.110;2023-03-20T14:37:03;101049.38;;;8.47
41654;BMP280;68687;52.030;7.110;2023-03-20T14:42:35;101040.22;;;8.50
41654;BMP280;68687;52.030;7.110;2023-03-20T14:57:52;101046.16;;;8.70
41654;BMP280;68687;52.030;7.110;2023-03-20T15:00:22;101054.63;;;8.57
41654;BMP280;68687;52.030;7.110;2023-03-20T15:02:51;101048.00;;;8.69
41654;BMP280;68687;52.030;7.110;2023-03-20T15:05:26;101041.41;;;8.55
41654;BMP280;68687;52.030;7.110;2023-03-20T15:07:55;101036.16;;;8.46
41654;BMP280;68687;52.030;7.110;2023-03-20T15:10:22;101040.66;;;8.37
41654;BMP280;68687;52.030;7.110;2023-03-20T15:12:47;101036.38;;;8.26
41654;BMP280;68687;52.030;7.110;2023-03-20T15:15:28;101036.59;;;8.33
41654;BMP280;68687;52.030;7.110;2023-03-20T15:17:55;101038.75;;;8.29
41654;BMP280;68687;52.030;7.110;2023-03-20T15:20:27;101045.72;;;8.22
41654;BMP280;68687;52.030;7.110;2023-03-20T15:22:56;101041.63;;;8.10
41654;BMP280;68687;52.030;7.110;2023-03-20T15:25:24;101036.47;;;8.17
41654;BMP280;68687;52.030;7.110;2023-03-20T15:27:52;101041.31;;;8.13
41654;BMP280;68687;52.030;7.110;2023-03-20T15:30:19;101042.06;;;7.97
41654;BMP280;68687;52.030;7.110;2023-03-20T15:32:47;101033.78;;;7.91
41654;BMP280;68687;52.030;7.110;2023-03-20T15:35:19;101032.28;;;7.88
41654;BMP280;68687;52.030;7.110;2023-03-20T15:37:46;101044.75;;;7.80
41654;BMP280;68687;52.030;7.110;2023-03-20T15:40:25;101044.06;;;7.78
41654;BMP280;68687;52.030;7.110;2023-03-20T15:43:09;101039.09;;;7.83
41654;BMP280;68687;52.030;7.110;2023-03-20T15:45:35;101027.97;;;7.69
41654;BMP280;68687;52.030;7.110;2023-03-20T15:48:05;101033.28;;;7.87
41654;BMP280;68687;52.030;7.110;2023-03-20T15:50:33;101030.25;;;7.64
41654;BMP280;68687;52.030;7.110;2023-03-20T15:52:59;101035.44;;;7.66
41654;BMP280;68687;52.030;7.110;2023-03-20T15:55:25;101030.56;;;7.61
41654;BMP280;68687;52.030;7.110;2023-03-20T15:57:55;101034.91;;;7.62
41654;BMP280;68687;52.030;7.110;2023-03-20T16:00:37;101035.53;;;7.74
41654;BMP280;68687;52.030;7.110;2023-03-20T16:03:09;101033.75;;;7.83
41654;BMP280;68687;52.030;7.110;2023-03-20T16:05:35;101032.75;;;7.84
41654;BMP280;68687;52.030;7.110;2023-03-20T16:08:17;101034.69;;;7.73
41654;BMP280;68687;52.030;7.110;2023-03-20T16:10:45;101028.81;;;7.70
41654;BMP280;68687;52.030;7.110;2023-03-20T16:13:12;101031.94;;;7.65
41654;BMP280;68687;52.030;7.110;2023-03-20T16:15:38;101024.06;;;7.64
41654;BMP280;68687;52.030;7.110;2023-03-20T16:18:04;101033.47;;;7.68
41654;BMP280;68687;52.030;7.110;2023-03-20T16:20:42;101022.47;;;7.71
41654;BMP280;68687;52.030;7.110;2023-03-20T16:23:13;101033.53;;;7.76
41654;BMP280;68687;52.030;7.110;2023-03-20T16:25:40;101035.06;;;7.79
41654;BMP280;68687;52.030;7.110;2023-03-20T16:28:06;101019.03;;;7.61